首页
METAR-TAF:

METAR-TAF

机场 :

勒图凯巴黎普拉日, 法国

纬度: 50-30-53N, 经度: 001-37-39E, 海拔: 6米

当前天气观测

该预报发布于20分钟前的00:00 UTC
风速3节,风向南转南东
温度 13°C
湿度 77%
气压 1035 hPa
能见度10公里或以上
1500米以下无云,无积雨云

METAR: LFAT 270000Z AUTO 16003KT CAVOK 13/09 Q1035

时间: 02:20 (00:20 UTC)


TAF: 丢失

超过4000个机场的气象观测和天气预报(METAR&TAF报告)。

可查询的气象台以黄色和红色小点在地图上表示。

将鼠标移到小点上方,可查看气象台名称。

然后点击查看天气观测和预报。

如需切换地图:点击带黑十字的绿色按钮放大地图;点击带横线的绿色按钮缩小地图;或者点击绿色箭头查看邻近地区的地图。


METAR-TAF: